createdAt,value
2022-09-22T00:00:25.620Z,98711.75
2022-09-22T00:05:28.010Z,98707.03
2022-09-22T00:10:30.361Z,98691.00
2022-09-22T00:15:32.714Z,98686.81
2022-09-22T00:20:38.421Z,98697.19
2022-09-22T00:25:41.423Z,98690.38
2022-09-22T00:30:43.812Z,98686.50
2022-09-22T00:35:56.083Z,98684.41
2022-09-22T00:41:00.910Z,98676.53
2022-09-22T00:46:10.100Z,98671.19
2022-09-22T00:51:15.163Z,98659.41
2022-09-22T00:56:38.300Z,98659.13
2022-09-22T01:01:41.040Z,98651.97
2022-09-22T01:06:45.541Z,98656.44
2022-09-22T01:11:48.075Z,98659.31
2022-09-22T01:17:28.568Z,98666.97
2022-09-22T01:22:39.095Z,98671.91
2022-09-22T01:27:50.349Z,98667.03
2022-09-22T01:33:11.302Z,98666.22
2022-09-22T01:38:14.239Z,98668.81
2022-09-22T01:43:55.106Z,98663.75
2022-09-22T01:49:00.952Z,98652.66
2022-09-22T01:54:18.855Z,98665.34
2022-09-22T01:59:28.235Z,98667.78
2022-09-22T02:04:33.025Z,98673.94
2022-09-22T02:09:36.175Z,98665.00
2022-09-22T02:14:38.875Z,98661.31
2022-09-22T02:19:43.865Z,98659.56
2022-09-22T02:24:47.015Z,98654.19
2022-09-22T02:29:59.685Z,98648.00
2022-09-22T02:35:03.461Z,98650.91
2022-09-22T02:40:14.534Z,98641.94
2022-09-22T02:45:34.583Z,98636.31
2022-09-22T02:50:38.517Z,98644.34
2022-09-22T02:55:41.761Z,98645.81
2022-09-22T03:00:45.364Z,98643.00
2022-09-22T03:05:47.789Z,98642.25
2022-09-22T03:10:50.165Z,98631.38
2022-09-22T03:15:52.539Z,98634.31
2022-09-22T03:20:55.248Z,98637.19
2022-09-22T03:25:57.915Z,98629.53
2022-09-22T03:31:00.417Z,98629.38
2022-09-22T03:36:02.976Z,98619.53
2022-09-22T03:41:05.469Z,98629.06
2022-09-22T03:46:07.967Z,98626.28
2022-09-22T03:51:10.573Z,98623.03
2022-09-22T03:56:14.943Z,98617.72
2022-09-22T04:01:17.366Z,98624.44
2022-09-22T04:06:19.745Z,98621.38
2022-09-22T04:11:23.652Z,98614.53
2022-09-22T04:16:27.414Z,98615.16
2022-09-22T04:21:29.924Z,98613.84
2022-09-22T04:26:32.280Z,98619.81
2022-09-22T04:31:34.693Z,98623.22
2022-09-22T04:36:37.036Z,98631.47
2022-09-22T04:41:39.370Z,98630.81
2022-09-22T04:46:46.082Z,98629.41
2022-09-22T04:51:48.752Z,98621.59
2022-09-22T04:56:51.117Z,98618.78
2022-09-22T05:01:53.667Z,98617.69
2022-09-22T05:06:56.099Z,98625.72
2022-09-22T05:11:59.690Z,98624.50
2022-09-22T05:17:02.602Z,98625.00
2022-09-22T05:22:05.045Z,98629.63
2022-09-22T05:27:07.802Z,98639.38
2022-09-22T05:32:10.266Z,98644.06
2022-09-22T05:37:12.672Z,98641.59
2022-09-22T05:42:15.022Z,98642.78
2022-09-22T05:47:17.407Z,98648.25
2022-09-22T05:52:19.752Z,98647.59
2022-09-22T05:57:25.514Z,98645.50
2022-09-22T06:02:27.983Z,98644.56
2022-09-22T06:07:30.631Z,98648.66
2022-09-22T06:12:32.971Z,98645.44
2022-09-22T06:17:35.414Z,98651.38
2022-09-22T06:22:37.772Z,98653.19
2022-09-22T06:27:40.296Z,98650.28
2022-09-22T06:32:43.919Z,98649.75
2022-09-22T06:37:48.684Z,98649.09
2022-09-22T06:42:56.307Z,98646.81
2022-09-22T06:48:05.204Z,98644.66
2022-09-22T06:53:11.980Z,98637.75
2022-09-22T06:58:15.659Z,98636.91
2022-09-22T07:03:20.845Z,98641.56
2022-09-22T07:08:24.507Z,98631.38
2022-09-22T07:13:30.011Z,98630.25
2022-09-22T07:18:33.533Z,98631.59
2022-09-22T07:23:36.787Z,98622.81
2022-09-22T07:28:39.654Z,98632.72
2022-09-22T07:33:44.443Z,98627.50
2022-09-22T07:38:49.730Z,98635.59
2022-09-22T07:43:56.196Z,98640.25
2022-09-22T07:48:59.221Z,98633.22
2022-09-22T07:54:08.013Z,98630.13
2022-09-22T07:59:12.849Z,98630.16
2022-09-22T08:04:22.723Z,98627.06
2022-09-22T08:09:26.478Z,98627.81
2022-09-22T08:14:29.913Z,98634.72
2022-09-22T08:19:35.294Z,98609.84
2022-09-22T08:24:37.684Z,98614.84
2022-09-22T08:29:40.058Z,98608.34
2022-09-22T08:34:42.483Z,98611.13
2022-09-22T08:39:44.971Z,98603.66
2022-09-22T08:44:57.180Z,98604.81
2022-09-22T08:50:18.241Z,98611.59
2022-09-22T08:55:23.383Z,98599.28
2022-09-22T09:00:45.510Z,98604.59
2022-09-22T09:06:23.559Z,98601.50
2022-09-22T09:11:46.685Z,98606.56
2022-09-22T09:16:58.354Z,98604.78
2022-09-22T09:22:12.129Z,98609.59
2022-09-22T09:27:21.736Z,98605.16
2022-09-22T09:33:11.470Z,98598.56
2022-09-22T09:38:17.390Z,98592.44
2022-09-22T09:43:21.476Z,98585.44
2022-09-22T09:48:40.921Z,98601.97
2022-09-22T09:53:47.641Z,98587.88
2022-09-22T09:59:23.518Z,98589.00
2022-09-22T10:04:38.083Z,98588.81
2022-09-22T10:09:41.289Z,98579.59
2022-09-22T10:14:51.731Z,98583.47
2022-09-22T10:20:14.132Z,98575.38
2022-09-22T10:25:33.167Z,98569.16
2022-09-22T10:30:39.633Z,98566.81
2022-09-22T10:35:53.424Z,98553.63
2022-09-22T10:41:10.806Z,98553.75
2022-09-22T10:46:49.991Z,98559.91
2022-09-22T10:52:24.368Z,98552.50
2022-09-22T10:57:54.444Z,98560.03
2022-09-22T11:03:03.149Z,98549.41
2022-09-22T11:08:32.142Z,98549.53
2022-09-22T11:13:37.327Z,98544.34
2022-09-22T11:19:02.783Z,98536.84
2022-09-22T11:24:37.737Z,98534.56
2022-09-22T11:29:58.007Z,98524.50
2022-09-22T11:35:12.408Z,98531.16
2022-09-22T11:40:44.039Z,98511.50
2022-09-22T11:45:58.161Z,98500.53
2022-09-22T11:51:10.572Z,98505.03
2022-09-22T11:56:35.677Z,98491.72
2022-09-22T12:01:40.567Z,98500.75
2022-09-22T12:06:49.427Z,98491.13
2022-09-22T12:11:54.749Z,98489.50
2022-09-22T12:17:28.006Z,98477.88
2022-09-22T12:22:43.142Z,98480.91
2022-09-22T12:27:46.213Z,98474.91
2022-09-22T12:32:50.594Z,98473.31
2022-09-22T12:37:55.156Z,98467.78
2022-09-22T12:42:59.428Z,98456.22
2022-09-22T12:48:10.899Z,98463.75
2022-09-22T12:53:22.433Z,98455.59
2022-09-22T12:58:30.796Z,98452.94
2022-09-22T13:03:37.125Z,98444.75
2022-09-22T13:08:39.473Z,98429.31
2022-09-22T13:13:47.261Z,98441.16
2022-09-22T13:18:52.891Z,98437.78
2022-09-22T13:23:55.242Z,98440.78
2022-09-22T13:29:12.293Z,98436.72
2022-09-22T13:34:35.338Z,98425.28
2022-09-22T13:39:47.341Z,98422.28
2022-09-22T13:45:00.398Z,98426.66
2022-09-22T13:50:12.929Z,98428.09
2022-09-22T13:55:35.448Z,98412.06
2022-09-22T14:01:11.409Z,98406.59
2022-09-22T14:06:20.161Z,98397.59
2022-09-22T14:11:30.077Z,98406.06
2022-09-22T14:16:34.162Z,98391.97
2022-09-22T14:22:13.689Z,98386.81
2022-09-22T14:27:39.523Z,98385.97
2022-09-22T14:32:55.120Z,98386.41
2022-09-22T14:38:06.317Z,98378.22
2022-09-22T14:43:33.345Z,98377.28
2022-09-22T14:48:38.985Z,98370.09
2022-09-22T14:53:46.635Z,98368.06
2022-09-22T14:58:54.125Z,98369.09
2022-09-22T15:04:04.750Z,98367.25
2022-09-22T15:09:12.892Z,98363.00
2022-09-22T15:14:34.422Z,98356.19
2022-09-22T15:19:37.667Z,98355.47
2022-09-22T15:24:43.072Z,98350.41
2022-09-22T15:29:46.347Z,98352.13
2022-09-22T15:34:48.851Z,98347.75
2022-09-22T15:39:51.319Z,98342.28
2022-09-22T15:44:54.008Z,98336.44
2022-09-22T15:49:56.969Z,98330.66
2022-09-22T15:54:59.619Z,98332.19
2022-09-22T16:00:02.383Z,98331.34
2022-09-22T16:05:15.419Z,98327.34
2022-09-22T16:10:23.893Z,98323.75
2022-09-22T16:15:26.295Z,98327.75
2022-09-22T16:20:29.483Z,98329.63
2022-09-22T16:25:32.505Z,98326.50
2022-09-22T16:30:46.964Z,98325.91
2022-09-22T16:35:52.525Z,98324.41
2022-09-22T16:41:17.909Z,98323.41
2022-09-22T16:46:27.049Z,98322.94
2022-09-22T16:51:30.138Z,98331.50
2022-09-22T16:56:37.846Z,98332.53
2022-09-22T17:01:40.435Z,98326.66
2022-09-22T17:06:51.795Z,98324.53
2022-09-22T17:11:54.256Z,98336.06
2022-09-22T17:16:58.256Z,98334.66
2022-09-22T17:22:00.956Z,98327.31
2022-09-22T17:27:03.456Z,98332.72
2022-09-22T17:32:08.080Z,98323.91
2022-09-22T17:37:14.192Z,98331.50
2022-09-22T17:42:16.824Z,98338.16
2022-09-22T17:47:37.926Z,98340.50
2022-09-22T17:52:59.182Z,98336.75
2022-09-22T17:58:01.626Z,98344.38
2022-09-22T18:03:04.615Z,98346.06
2022-09-22T18:08:07.062Z,98344.69
2022-09-22T18:13:09.691Z,98350.53
2022-09-22T18:18:12.048Z,98339.03
2022-09-22T18:23:14.474Z,98344.84
2022-09-22T18:28:22.316Z,98342.19
2022-09-22T18:33:24.668Z,98344.31
2022-09-22T18:38:29.997Z,98342.63
2022-09-22T18:43:32.525Z,98356.72
2022-09-22T18:48:34.895Z,98351.34
2022-09-22T18:53:37.967Z,98353.41
2022-09-22T18:58:40.469Z,98354.84
2022-09-22T19:03:42.837Z,98360.78
2022-09-22T19:08:45.570Z,98357.69
2022-09-22T19:13:48.372Z,98360.97
2022-09-22T19:18:51.235Z,98356.50
2022-09-22T19:23:53.736Z,98354.72
2022-09-22T19:28:56.224Z,98355.53
2022-09-22T19:33:59.757Z,98360.19
2022-09-22T19:39:02.251Z,98351.66
2022-09-22T19:44:05.643Z,98361.56
2022-09-22T19:49:08.242Z,98354.72
2022-09-22T19:54:11.249Z,98362.63
2022-09-22T19:59:13.911Z,98356.41
2022-09-22T20:04:19.873Z,98354.72
2022-09-22T20:09:22.322Z,98358.91
2022-09-22T20:14:26.907Z,98352.00
2022-09-22T20:19:31.543Z,98355.56
2022-09-22T20:24:34.090Z,98350.88
2022-09-22T20:29:36.509Z,98344.06
2022-09-22T20:34:39.373Z,98341.88
2022-09-22T20:39:42.548Z,98338.59
2022-09-22T20:44:45.260Z,98334.31
2022-09-22T20:49:51.531Z,98335.50
2022-09-22T20:54:54.285Z,98345.38
2022-09-22T20:59:57.200Z,98341.13
2022-09-22T21:04:59.668Z,98325.69
2022-09-22T21:10:20.897Z,98338.66
2022-09-22T21:15:23.326Z,98331.94
2022-09-22T21:20:27.184Z,98340.84
2022-09-22T21:25:30.520Z,98342.34
2022-09-22T21:30:33.060Z,98331.91
2022-09-22T21:35:35.409Z,98336.56
2022-09-22T21:40:37.780Z,98338.91
2022-09-22T21:45:40.355Z,98323.28
2022-09-22T21:50:42.744Z,98330.78
2022-09-22T21:55:45.105Z,98327.75
2022-09-22T22:00:52.075Z,98318.34
2022-09-22T22:06:09.148Z,98316.47
2022-09-22T22:11:22.890Z,98315.75
2022-09-22T22:16:30.354Z,98303.53
2022-09-22T22:21:35.919Z,98308.84
2022-09-22T22:26:38.474Z,98307.84
2022-09-22T22:31:41.617Z,98303.09
2022-09-22T22:36:44.604Z,98301.81
2022-09-22T22:41:48.850Z,98307.09
2022-09-22T22:46:51.261Z,98302.13
2022-09-22T22:51:53.816Z,98290.47
2022-09-22T22:56:56.249Z,98290.47
2022-09-22T23:01:58.575Z,98287.03
2022-09-22T23:07:01.438Z,98281.34
2022-09-22T23:12:03.848Z,98278.09
2022-09-22T23:17:08.197Z,98268.13
2022-09-22T23:22:10.586Z,98269.25
2022-09-22T23:27:13.203Z,98274.06
2022-09-22T23:32:15.665Z,98275.34
2022-09-22T23:37:18.006Z,98266.31
2022-09-22T23:42:20.413Z,98271.94
2022-09-22T23:47:22.772Z,98259.22
2022-09-22T23:52:25.841Z,98258.38
2022-09-22T23:57:28.400Z,98257.09
